createdAt,value
2018-05-29T00:01:36.227Z,60.50
2018-05-29T00:04:02.512Z,63.24
2018-05-29T00:06:28.782Z,62.84
2018-05-29T00:08:55.006Z,62.73
2018-05-29T00:11:21.734Z,63.90
2018-05-29T00:13:48.010Z,63.25
2018-05-29T00:16:14.291Z,63.99
2018-05-29T00:18:40.567Z,63.89
2018-05-29T00:21:06.841Z,63.88
2018-05-29T00:23:33.833Z,63.89
2018-05-29T00:26:00.056Z,63.18
2018-05-29T00:28:26.358Z,62.83
2018-05-29T00:30:52.626Z,62.71
2018-05-29T00:33:18.898Z,61.85
2018-05-29T00:35:45.117Z,62.24
2018-05-29T00:38:11.415Z,64.23
2018-05-29T00:40:37.752Z,61.45
2018-05-29T00:43:04.817Z,60.42
2018-05-29T00:45:31.095Z,61.84
2018-05-29T00:47:57.377Z,62.54
2018-05-29T00:50:24.441Z,61.81
2018-05-29T00:52:50.738Z,63.42
2018-05-29T00:55:35.578Z,62.40
2018-05-29T00:58:01.873Z,63.79
2018-05-29T01:00:28.186Z,61.05
2018-05-29T01:02:54.465Z,60.93
2018-05-29T01:05:20.737Z,62.70
2018-05-29T01:07:46.985Z,60.74
2018-05-29T01:10:13.238Z,61.38
2018-05-29T01:12:40.275Z,63.92
2018-05-29T01:15:06.651Z,63.49
2018-05-29T01:17:32.877Z,63.32
2018-05-29T01:19:59.162Z,64.03
2018-05-29T01:22:25.422Z,62.92
2018-05-29T01:24:52.412Z,64.19
2018-05-29T01:27:18.713Z,65.17
2018-05-29T01:29:45.705Z,63.64
2018-05-29T01:32:11.977Z,64.82
2018-05-29T01:34:38.309Z,62.90
2018-05-29T01:37:04.595Z,61.72
2018-05-29T01:39:30.901Z,63.83
2018-05-29T01:41:57.925Z,61.99
2018-05-29T01:44:24.232Z,63.23
2018-05-29T01:46:50.557Z,62.99
2018-05-29T01:49:16.833Z,65.25
2018-05-29T01:51:43.101Z,65.63
2018-05-29T01:54:09.392Z,62.48
2018-05-29T01:56:35.678Z,62.78
2018-05-29T01:59:02.701Z,61.72
2018-05-29T02:01:28.957Z,62.33
2018-05-29T02:03:55.240Z,61.57
2018-05-29T02:06:21.541Z,62.31
2018-05-29T02:08:48.557Z,64.11
2018-05-29T02:11:14.843Z,62.61
2018-05-29T02:13:41.094Z,62.97
2018-05-29T02:16:07.430Z,64.79
2018-05-29T02:18:33.735Z,63.62
2018-05-29T02:21:00.022Z,66.63
2018-05-29T02:23:26.262Z,63.17
2018-05-29T02:25:52.510Z,65.73
2018-05-29T02:28:18.770Z,63.60
2018-05-29T02:30:47.667Z,65.48
2018-05-29T02:33:14.061Z,63.52
2018-05-29T02:35:40.334Z,65.59
2018-05-29T02:38:06.618Z,65.55
2018-05-29T02:40:32.902Z,62.90
2018-05-29T02:42:59.177Z,66.02
2018-05-29T02:45:25.477Z,64.92
2018-05-29T02:47:51.746Z,67.73
2018-05-29T02:50:17.975Z,65.34
2018-05-29T02:52:44.533Z,63.77
2018-05-29T02:55:10.794Z,64.09
2018-05-29T02:57:37.086Z,66.14
2018-05-29T03:00:04.146Z,64.62
2018-05-29T03:02:30.416Z,68.65
2018-05-29T03:04:56.959Z,65.90
2018-05-29T03:07:23.230Z,66.98
2018-05-29T03:09:50.195Z,64.38
2018-05-29T03:12:17.281Z,64.41
2018-05-29T03:14:43.550Z,63.91
2018-05-29T03:17:09.885Z,65.58
2018-05-29T03:19:36.171Z,64.15
2018-05-29T03:22:02.476Z,63.55
2018-05-29T03:24:28.743Z,65.10
2018-05-29T03:26:55.002Z,67.26
2018-05-29T03:29:21.597Z,66.40
2018-05-29T03:31:48.614Z,66.52
2018-05-29T03:34:14.862Z,68.22
2018-05-29T03:36:41.126Z,69.12
2018-05-29T03:39:08.149Z,66.27
2018-05-29T03:41:34.436Z,69.29
2018-05-29T03:44:00.754Z,68.45
2018-05-29T03:46:27.770Z,66.01
2018-05-29T03:48:54.025Z,67.83
2018-05-29T03:51:20.354Z,64.77
2018-05-29T03:53:46.665Z,65.11
2018-05-29T03:56:12.909Z,69.06
2018-05-29T03:58:39.190Z,69.61
2018-05-29T04:01:06.190Z,68.67
2018-05-29T04:03:32.469Z,68.19
2018-05-29T04:05:59.452Z,69.75
2018-05-29T04:08:25.734Z,70.03
2018-05-29T04:10:53.693Z,69.13
2018-05-29T04:13:19.949Z,68.99
2018-05-29T04:15:47.202Z,67.58
2018-05-29T04:18:13.450Z,69.05
2018-05-29T04:20:39.733Z,68.90
2018-05-29T04:23:05.990Z,65.38
2018-05-29T04:25:32.244Z,66.30
2018-05-29T04:27:58.549Z,68.00
2018-05-29T04:30:24.861Z,67.73
2018-05-29T04:32:51.142Z,66.88
2018-05-29T04:35:17.431Z,67.46
2018-05-29T04:37:43.684Z,66.27
2018-05-29T04:40:09.950Z,67.82
2018-05-29T04:42:36.204Z,67.79
2018-05-29T04:45:02.519Z,68.08
2018-05-29T04:47:28.829Z,65.63
2018-05-29T04:49:55.162Z,64.46
2018-05-29T04:52:21.443Z,65.37
2018-05-29T04:54:47.741Z,64.78
2018-05-29T04:57:14.029Z,64.65
2018-05-29T04:59:41.066Z,62.77
2018-05-29T05:02:07.379Z,62.08
2018-05-29T05:04:33.682Z,59.84
2018-05-29T05:06:59.998Z,58.41
2018-05-29T05:09:27.048Z,55.76
2018-05-29T05:11:53.337Z,54.84
2018-05-29T05:14:19.614Z,53.10
2018-05-29T05:16:46.754Z,51.43
2018-05-29T05:19:13.821Z,50.32
2018-05-29T05:21:40.881Z,48.35
2018-05-29T05:24:07.974Z,46.83
2018-05-29T05:26:34.275Z,46.17
2018-05-29T05:29:01.267Z,45.79
2018-05-29T05:31:27.601Z,44.07
2018-05-29T05:33:53.910Z,43.83
2018-05-29T05:36:20.970Z,42.84
2018-05-29T05:38:47.301Z,42.31
2018-05-29T05:41:14.376Z,41.82
2018-05-29T05:43:40.678Z,42.01
2018-05-29T05:46:07.761Z,42.36
2018-05-29T05:48:34.034Z,42.71
2018-05-29T05:51:00.353Z,43.21
2018-05-29T05:53:26.657Z,43.62
2018-05-29T05:55:53.014Z,43.62
2018-05-29T05:58:19.306Z,43.90
2018-05-29T06:00:46.610Z,44.12
2018-05-29T06:03:12.868Z,44.70
2018-05-29T06:05:39.204Z,44.67
2018-05-29T06:08:05.478Z,44.48
2018-05-29T06:10:32.478Z,44.47
2018-05-29T06:12:58.851Z,44.46
2018-05-29T06:15:25.879Z,44.38
2018-05-29T06:17:52.174Z,43.39
2018-05-29T06:20:19.205Z,44.28
2018-05-29T06:22:46.260Z,44.20
2018-05-29T06:25:13.306Z,44.06
2018-05-29T06:27:39.622Z,43.76
2018-05-29T06:30:05.937Z,42.65
2018-05-29T06:32:32.254Z,43.87
2018-05-29T06:34:58.606Z,43.64
2018-05-29T06:37:24.932Z,44.08
2018-05-29T06:39:51.283Z,43.36
2018-05-29T06:42:20.481Z,44.12
2018-05-29T06:44:47.600Z,44.74
2018-05-29T06:47:13.883Z,44.88
2018-05-29T06:49:40.185Z,44.42
2018-05-29T06:52:06.477Z,43.01
2018-05-29T06:54:32.785Z,43.13
2018-05-29T06:56:59.058Z,42.59
2018-05-29T06:59:25.315Z,41.72
2018-05-29T07:01:52.330Z,41.82
2018-05-29T07:04:19.328Z,40.94
2018-05-29T07:06:46.366Z,41.16
2018-05-29T07:09:28.681Z,41.19
2018-05-29T07:11:55.736Z,41.39
2018-05-29T07:14:22.109Z,41.51
2018-05-29T07:16:48.380Z,41.64
2018-05-29T07:19:14.644Z,41.06
2018-05-29T07:21:41.697Z,41.63
2018-05-29T07:24:10.391Z,41.81
2018-05-29T07:26:36.801Z,42.11
2018-05-29T07:29:03.072Z,42.13
2018-05-29T07:31:29.368Z,42.05
2018-05-29T07:33:55.659Z,42.27
2018-05-29T07:36:21.957Z,42.35
2018-05-29T07:38:49.010Z,42.48
2018-05-29T07:41:16.026Z,42.57
2018-05-29T07:43:42.286Z,42.54
2018-05-29T07:46:08.553Z,42.54
2018-05-29T07:48:34.809Z,42.33
2018-05-29T07:51:01.069Z,42.35
2018-05-29T07:53:27.314Z,42.58
2018-05-29T07:55:53.610Z,42.41
2018-05-29T07:58:19.865Z,42.31
2018-05-29T08:00:46.179Z,42.45
2018-05-29T08:03:12.474Z,42.59
2018-05-29T08:05:39.546Z,42.76
2018-05-29T08:08:05.854Z,42.63
2018-05-29T08:10:32.203Z,42.32
2018-05-29T08:12:58.429Z,42.26
2018-05-29T08:15:24.710Z,41.66
2018-05-29T08:17:50.995Z,41.04
2018-05-29T08:20:17.261Z,40.95
2018-05-29T08:22:44.258Z,41.09
2018-05-29T08:25:10.542Z,41.05
2018-05-29T08:27:37.557Z,41.23
2018-05-29T08:30:03.887Z,40.06
2018-05-29T08:32:30.157Z,40.81
2018-05-29T08:34:57.174Z,40.70
2018-05-29T08:37:23.541Z,39.67
2018-05-29T08:39:49.841Z,39.76
2018-05-29T08:42:16.389Z,39.93
2018-05-29T08:44:42.742Z,40.64
2018-05-29T08:47:11.735Z,40.43
2018-05-29T08:49:38.085Z,40.30
2018-05-29T08:52:04.357Z,39.96
2018-05-29T08:54:30.646Z,40.75
2018-05-29T08:56:56.889Z,40.31
2018-05-29T08:59:23.211Z,40.04
2018-05-29T09:01:49.531Z,39.98
2018-05-29T09:04:15.858Z,39.83
2018-05-29T09:06:42.094Z,38.46
2018-05-29T09:09:08.381Z,39.52
2018-05-29T09:11:34.646Z,39.68
2018-05-29T09:14:00.969Z,39.33
2018-05-29T09:16:27.974Z,39.00
2018-05-29T09:18:54.358Z,39.11
2018-05-29T09:21:21.426Z,38.67
2018-05-29T09:23:47.705Z,39.04
2018-05-29T09:26:14.010Z,39.35
2018-05-29T09:28:40.271Z,38.94
2018-05-29T09:31:06.564Z,39.12
2018-05-29T09:33:32.845Z,39.19
2018-05-29T09:35:59.133Z,39.27
2018-05-29T09:38:26.134Z,39.13
2018-05-29T09:40:52.386Z,38.97
2018-05-29T09:43:18.692Z,38.67
2018-05-29T09:45:44.955Z,37.62
2018-05-29T09:48:11.285Z,37.57
2018-05-29T09:50:37.518Z,36.37
2018-05-29T09:53:03.849Z,35.50
2018-05-29T09:55:30.158Z,33.31
2018-05-29T09:57:56.494Z,32.54
2018-05-29T10:00:28.937Z,31.81
2018-05-29T10:02:55.939Z,30.78
2018-05-29T10:05:22.237Z,29.86
2018-05-29T10:07:49.286Z,29.54
2018-05-29T10:10:18.797Z,28.39
2018-05-29T10:12:45.153Z,27.18
2018-05-29T10:15:11.461Z,26.67
2018-05-29T10:17:38.525Z,25.86
2018-05-29T10:20:04.846Z,25.84
2018-05-29T10:22:31.149Z,25.99
2018-05-29T10:24:57.441Z,25.14
2018-05-29T10:27:23.698Z,24.63
2018-05-29T10:29:49.945Z,23.72
2018-05-29T10:32:16.264Z,23.75
2018-05-29T10:34:42.515Z,23.42
2018-05-29T10:37:08.782Z,23.03
2018-05-29T10:39:35.050Z,22.78
2018-05-29T10:42:02.071Z,22.54
2018-05-29T10:44:28.359Z,21.84
2018-05-29T10:46:54.618Z,21.03
2018-05-29T10:49:20.837Z,20.63
2018-05-29T10:51:47.126Z,20.64
2018-05-29T10:54:14.120Z,21.05
2018-05-29T10:56:40.414Z,20.38
2018-05-29T10:59:07.439Z,20.01
2018-05-29T11:01:33.688Z,19.88
2018-05-29T11:03:59.937Z,19.59
2018-05-29T11:06:26.929Z,19.47
2018-05-29T11:08:53.253Z,19.36
2018-05-29T11:11:19.490Z,19.21
2018-05-29T11:13:45.752Z,18.60
2018-05-29T11:16:12.167Z,19.07
2018-05-29T11:18:38.411Z,18.63
2018-05-29T11:21:04.691Z,18.69
2018-05-29T11:23:30.951Z,19.06
2018-05-29T11:25:57.965Z,18.98
2018-05-29T11:28:24.254Z,19.47
2018-05-29T11:30:50.643Z,19.31
2018-05-29T11:33:16.974Z,19.27
2018-05-29T11:35:43.233Z,19.62
2018-05-29T11:38:09.545Z,20.15
2018-05-29T11:40:35.792Z,21.46
2018-05-29T11:43:02.061Z,22.76
2018-05-29T11:45:28.282Z,23.52
2018-05-29T11:47:54.554Z,23.97
2018-05-29T11:50:20.846Z,24.31
2018-05-29T11:52:47.174Z,24.25
2018-05-29T11:55:13.460Z,24.44
2018-05-29T11:57:40.727Z,25.79
2018-05-29T12:00:07.014Z,26.53
2018-05-29T12:02:34.172Z,27.08
2018-05-29T12:05:00.375Z,27.72
2018-05-29T12:07:26.772Z,28.82
2018-05-29T12:09:53.085Z,29.12
2018-05-29T12:12:25.182Z,29.10
2018-05-29T12:14:51.488Z,29.12
2018-05-29T12:17:18.605Z,29.03
2018-05-29T12:19:44.909Z,28.37
2018-05-29T12:22:11.237Z,28.93
2018-05-29T12:24:37.513Z,28.80
2018-05-29T12:27:03.829Z,29.14
2018-05-29T12:29:30.184Z,29.05
2018-05-29T12:31:56.538Z,29.51
2018-05-29T12:34:22.847Z,30.07
2018-05-29T12:36:49.112Z,30.12
2018-05-29T12:39:15.394Z,29.98
2018-05-29T12:41:41.709Z,29.66
2018-05-29T12:44:08.729Z,28.91
2018-05-29T12:46:34.961Z,28.95
2018-05-29T12:49:01.236Z,29.13
2018-05-29T12:51:28.284Z,29.78
2018-05-29T12:53:55.622Z,30.24
2018-05-29T12:56:26.738Z,30.72
2018-05-29T12:58:53.084Z,31.45
2018-05-29T13:01:29.651Z,31.58
2018-05-29T13:03:56.153Z,32.00
2018-05-29T13:06:22.628Z,32.73
2018-05-29T13:08:52.051Z,33.10
2018-05-29T13:11:19.270Z,33.08
2018-05-29T13:13:46.281Z,33.52
2018-05-29T13:16:12.631Z,33.67
2018-05-29T13:18:39.334Z,33.60
2018-05-29T13:21:05.617Z,33.86
2018-05-29T13:23:31.892Z,34.36
2018-05-29T13:25:58.980Z,34.70
2018-05-29T13:28:25.277Z,34.63
2018-05-29T13:30:51.561Z,34.78
2018-05-29T13:33:18.587Z,34.63
2018-05-29T13:35:44.896Z,34.95
2018-05-29T13:38:11.180Z,34.86
2018-05-29T13:40:37.441Z,34.70
2018-05-29T13:43:03.772Z,35.00
2018-05-29T13:47:57.050Z,35.10
2018-05-29T13:50:24.061Z,35.05
2018-05-29T13:52:50.328Z,35.02
2018-05-29T13:55:16.634Z,34.77
2018-05-29T13:57:42.933Z,35.26
2018-05-29T14:00:09.266Z,35.34
2018-05-29T14:02:35.547Z,35.37
2018-05-29T14:05:01.847Z,35.26
2018-05-29T14:07:28.671Z,35.48
2018-05-29T14:09:55.740Z,35.30
2018-05-29T14:12:22.073Z,35.52
2018-05-29T14:14:48.403Z,35.61
2018-05-29T14:17:14.641Z,35.92
2018-05-29T14:19:40.909Z,35.84
2018-05-29T14:22:07.224Z,36.42
2018-05-29T14:24:33.523Z,36.42
2018-05-29T14:27:03.728Z,35.98
2018-05-29T14:29:30.360Z,36.39
2018-05-29T14:31:56.633Z,36.53
2018-05-29T14:34:22.961Z,36.94
2018-05-29T14:36:50.727Z,37.55
2018-05-29T14:39:16.987Z,37.50
2018-05-29T14:41:44.037Z,37.62
2018-05-29T14:44:11.930Z,37.92
2018-05-29T14:46:38.150Z,38.51
2018-05-29T14:49:05.198Z,38.55
2018-05-29T14:51:31.473Z,39.06
2018-05-29T14:53:57.731Z,39.13
2018-05-29T14:56:24.051Z,39.55
2018-05-29T14:58:50.398Z,39.93
2018-05-29T15:01:16.681Z,40.08
2018-05-29T15:03:43.742Z,40.98
2018-05-29T15:06:10.852Z,41.35
2018-05-29T15:08:37.150Z,41.44
2018-05-29T15:11:03.394Z,42.16
2018-05-29T15:13:29.701Z,42.30
2018-05-29T15:15:55.991Z,42.78
2018-05-29T15:18:22.325Z,43.13
2018-05-29T15:20:48.637Z,43.22
2018-05-29T15:23:15.068Z,43.25
2018-05-29T15:25:41.393Z,43.25
2018-05-29T15:28:07.711Z,43.32
2018-05-29T15:30:34.799Z,43.14
2018-05-29T15:33:01.117Z,43.46
2018-05-29T15:35:27.445Z,43.70
2018-05-29T15:37:54.485Z,44.75
2018-05-29T15:40:21.538Z,44.16
2018-05-29T15:42:48.003Z,44.28
2018-05-29T15:45:14.332Z,44.50
2018-05-29T15:47:41.395Z,45.04
2018-05-29T15:50:07.772Z,45.36
2018-05-29T15:52:34.085Z,45.13
2018-05-29T15:55:00.342Z,45.27
2018-05-29T15:57:26.661Z,45.64
2018-05-29T15:59:53.014Z,45.13
2018-05-29T16:02:19.273Z,45.26
2018-05-29T16:04:46.286Z,44.87
2018-05-29T16:07:12.646Z,45.28
2018-05-29T16:09:38.990Z,45.59
2018-05-29T16:12:05.274Z,45.39
2018-05-29T16:14:31.548Z,45.42
2018-05-29T16:16:57.883Z,45.61
2018-05-29T16:19:24.202Z,45.89
2018-05-29T16:21:50.430Z,46.05
2018-05-29T16:24:16.819Z,46.22
2018-05-29T16:26:43.993Z,46.59
2018-05-29T16:29:11.350Z,46.75
2018-05-29T16:31:38.824Z,46.09
2018-05-29T16:34:05.809Z,45.97
2018-05-29T16:36:32.098Z,45.83
2018-05-29T16:38:59.159Z,45.68
2018-05-29T16:41:26.274Z,45.84
2018-05-29T16:43:52.565Z,45.74
2018-05-29T16:46:18.883Z,45.98
2018-05-29T16:48:46.244Z,45.95
2018-05-29T16:51:12.557Z,45.97
2018-05-29T16:53:38.881Z,46.19
2018-05-29T16:56:05.174Z,45.98
2018-05-29T16:58:31.449Z,45.82
2018-05-29T17:00:57.765Z,45.64
2018-05-29T17:03:24.015Z,45.71
2018-05-29T17:05:50.319Z,45.62
2018-05-29T17:08:16.653Z,45.73
2018-05-29T17:10:42.920Z,46.39
2018-05-29T17:13:09.229Z,45.82
2018-05-29T17:15:35.536Z,45.75
2018-05-29T17:18:02.580Z,45.77
2018-05-29T17:20:28.862Z,45.97
2018-05-29T17:22:55.208Z,45.97
2018-05-29T17:25:21.486Z,46.34
2018-05-29T17:27:47.807Z,46.53
2018-05-29T17:30:14.073Z,46.45
2018-05-29T17:32:41.138Z,46.82
2018-05-29T17:35:07.405Z,46.69
2018-05-29T17:37:33.713Z,46.99
2018-05-29T17:40:00.746Z,47.05
2018-05-29T17:42:27.014Z,47.04
2018-05-29T17:44:53.298Z,46.81
2018-05-29T17:47:19.587Z,47.05
2018-05-29T17:49:45.870Z,47.09
2018-05-29T17:52:12.210Z,47.35
2018-05-29T17:54:38.523Z,47.57
2018-05-29T17:57:04.827Z,47.07
2018-05-29T17:59:31.165Z,47.39
2018-05-29T18:01:57.525Z,47.75
2018-05-29T18:04:23.826Z,47.37
2018-05-29T18:06:50.890Z,48.39
2018-05-29T18:09:17.243Z,47.62
2018-05-29T18:11:43.531Z,47.81
2018-05-29T18:14:10.528Z,48.91
2018-05-29T18:16:36.789Z,48.12
2018-05-29T18:19:03.105Z,48.61
2018-05-29T18:21:30.509Z,48.75
2018-05-29T18:23:57.573Z,49.70
2018-05-29T18:26:24.653Z,50.06
2018-05-29T18:28:50.986Z,48.73
2018-05-29T18:31:18.477Z,49.53
2018-05-29T18:33:45.042Z,49.16
2018-05-29T18:36:11.757Z,50.61
2018-05-29T18:38:38.249Z,50.23
2018-05-29T18:41:05.522Z,49.70
2018-05-29T18:43:31.845Z,49.74
2018-05-29T18:45:58.135Z,50.71
2018-05-29T18:48:24.574Z,50.30
2018-05-29T18:50:50.885Z,49.97
2018-05-29T18:53:17.138Z,49.70
2018-05-29T18:55:43.430Z,51.20
2018-05-29T18:58:09.713Z,50.08
2018-05-29T19:00:36.002Z,51.90
2018-05-29T19:03:03.159Z,51.52
2018-05-29T19:05:30.325Z,51.64
2018-05-29T19:07:56.616Z,51.09
2018-05-29T19:10:22.994Z,51.19
2018-05-29T19:12:50.051Z,50.31
2018-05-29T19:15:17.058Z,50.59
2018-05-29T19:17:43.392Z,50.65
2018-05-29T19:20:09.750Z,50.45
2018-05-29T19:22:36.015Z,50.81
2018-05-29T19:25:03.203Z,51.04
2018-05-29T19:27:29.523Z,53.01
2018-05-29T19:29:55.826Z,53.09
2018-05-29T19:32:25.000Z,51.39
2018-05-29T19:34:51.749Z,52.03
2018-05-29T19:37:19.475Z,54.66
2018-05-29T19:39:47.143Z,53.43
2018-05-29T19:42:13.484Z,53.73
2018-05-29T19:44:39.803Z,53.51
2018-05-29T19:47:06.823Z,54.64
2018-05-29T19:49:33.137Z,54.80
2018-05-29T19:51:59.437Z,53.70
2018-05-29T19:54:25.782Z,55.02
2018-05-29T19:56:52.030Z,56.15
2018-05-29T19:59:18.320Z,55.16
2018-05-29T20:01:44.651Z,56.88
2018-05-29T20:04:12.058Z,55.17
2018-05-29T20:06:38.412Z,55.07
2018-05-29T20:09:04.693Z,55.12
2018-05-29T20:11:31.002Z,55.97
2018-05-29T20:13:57.304Z,57.81
2018-05-29T20:16:23.585Z,55.52
2018-05-29T20:18:49.894Z,56.51
2018-05-29T20:21:16.206Z,57.17
2018-05-29T20:23:42.474Z,59.03
2018-05-29T20:26:08.823Z,57.75
2018-05-29T20:28:35.051Z,56.00
2018-05-29T20:31:01.358Z,56.23
2018-05-29T20:33:27.708Z,59.29
2018-05-29T20:35:53.981Z,57.50
2018-05-29T20:38:20.263Z,58.09
2018-05-29T20:40:46.578Z,57.21
2018-05-29T20:43:13.628Z,58.50
2018-05-29T20:45:40.713Z,56.99
2018-05-29T20:48:06.991Z,59.12
2018-05-29T20:50:33.350Z,58.77
2018-05-29T20:53:00.358Z,59.09
2018-05-29T20:55:28.690Z,57.75
2018-05-29T20:57:55.685Z,57.62
2018-05-29T21:00:21.944Z,57.87
2018-05-29T21:02:48.235Z,56.81
2018-05-29T21:05:14.497Z,59.00
2018-05-29T21:07:41.013Z,59.51
2018-05-29T21:10:07.287Z,59.49
2018-05-29T21:12:34.346Z,58.66
2018-05-29T21:15:00.620Z,58.33
2018-05-29T21:17:26.928Z,59.50
2018-05-29T21:19:53.959Z,58.87
2018-05-29T21:22:20.284Z,58.28
2018-05-29T21:24:47.239Z,57.69
2018-05-29T21:27:15.274Z,57.17
2018-05-29T21:29:41.679Z,57.45
2018-05-29T21:32:07.952Z,57.95
2018-05-29T21:34:34.235Z,58.49
2018-05-29T21:37:00.538Z,58.67
2018-05-29T21:39:26.801Z,58.60
2018-05-29T21:41:53.066Z,56.65
2018-05-29T21:44:20.055Z,56.18
2018-05-29T21:46:46.344Z,57.98
2018-05-29T21:49:12.618Z,55.88
2018-05-29T21:51:38.925Z,55.72
2018-05-29T21:54:05.984Z,56.71
2018-05-29T21:56:33.026Z,57.56
2018-05-29T21:59:00.063Z,57.59
2018-05-29T22:01:26.374Z,58.02
2018-05-29T22:03:52.626Z,57.50
2018-05-29T22:06:18.918Z,57.98
2018-05-29T22:08:45.238Z,57.25
2018-05-29T22:11:12.291Z,58.38
2018-05-29T22:13:39.285Z,58.67
2018-05-29T22:18:38.513Z,57.51
2018-05-29T22:21:04.765Z,56.76
2018-05-29T22:23:31.057Z,57.24
2018-05-29T22:25:57.369Z,56.83
2018-05-29T22:28:24.455Z,57.58
2018-05-29T22:30:50.793Z,59.11
2018-05-29T22:33:17.145Z,58.93
2018-05-29T22:35:43.670Z,59.63
2018-05-29T22:38:09.937Z,59.04
2018-05-29T22:40:36.222Z,60.34
2018-05-29T22:43:02.529Z,60.55
2018-05-29T22:45:28.795Z,60.61
2018-05-29T22:47:55.844Z,59.53
2018-05-29T22:50:22.870Z,59.35
2018-05-29T22:52:49.185Z,59.77
2018-05-29T22:55:15.447Z,59.88
2018-05-29T22:57:42.594Z,59.20
2018-05-29T23:00:08.922Z,61.04
2018-05-29T23:02:35.222Z,61.10
2018-05-29T23:05:01.490Z,60.86
2018-05-29T23:07:27.793Z,61.07
2018-05-29T23:09:54.092Z,62.28
2018-05-29T23:12:21.095Z,61.21
2018-05-29T23:14:47.377Z,62.28
2018-05-29T23:17:13.661Z,62.66
2018-05-29T23:19:39.933Z,63.08
2018-05-29T23:22:06.253Z,62.82
2018-05-29T23:24:32.540Z,64.25
2018-05-29T23:26:59.583Z,62.69
2018-05-29T23:29:26.599Z,61.13
2018-05-29T23:31:53.093Z,62.18
2018-05-29T23:34:19.430Z,60.31
2018-05-29T23:36:45.733Z,63.26
2018-05-29T23:39:12.112Z,63.72
2018-05-29T23:41:38.423Z,61.60
2018-05-29T23:44:05.458Z,61.48
2018-05-29T23:46:31.806Z,63.27
2018-05-29T23:48:58.873Z,62.98
2018-05-29T23:51:25.906Z,60.02
2018-05-29T23:53:53.713Z,59.28
2018-05-29T23:56:20.057Z,60.58
2018-05-29T23:58:46.354Z,62.61
